7MA1 weather

Digital (Box 2) Heliport
Boxborough, Massachusetts, United States

Public forecast

Using degrees Fahrenheit for public forecast. Weather courtesy of forecast.io.

METAR (pilot weather report)

Closest report is Fitchburg Municipal Airport, 10.2 nm (18.9 km) WNW. Retrieved 2019/07/20 16:52 UTC (30 minutes ago):

KFIT 201652Z AUTO 29009KT 10SM FEW038 34/23 A2981 RMK AO2 SLP090 T03390228 $

TAF (pilot weather forecast)

Closest forecast is Laurence G Hanscom Field, 11.4 nm (21.0 km) E. Retrieved 2019/07/20 12:24 UTC (5 hours ago):

TAF KBED 201120Z 2012/2112 24005KT P6SM BKN250 FM201700 26005KT P6SM FEW250 FM210800 26005KT P6SM SCT150